Aeroporto :
LOGIN :

Iscrizione | Disclaimer

   EN    FR    IT 

 










Sommario :    VFR   VFR Marginale   IFR   IFR Intensivo   IFR Molto Intensivo
Visibilità : 
Base nubi : 
>= 8 km
>= 3000ft
5 / 8 km
1000 / 3000 ft
1500m / 5 km
500 / 1000 ft
800 / 1500m
200 / 500 ft
< 800m
< 200 ft
Simboli :   Temporali  Nebbia  Neve Forte  Precipitazioni Forti  Vento > 20 kt
SIGMETs :   Varie  Temporali  Ghiacco  Turbolenza  Onda orograficha  Ceneri Vulcaniche






- Altitudine del aeroporto : 1682 ft
- Codice IATA : VIT


LEVT - Vitoria Gasteiz

ULTIMO METAR :
  • 182000Z 10005KT 070V130 7000 -RA BKN022 05/03 Q1021

METARs OBSOLETI :
  • 181930Z 17002KT 9000 -RA BKN022 05/04 Q1021
  • 181900Z 33004KT 270V060 9000 -RA SCT021 BKN032 06/04 Q1020
  • 181830Z 35009KT 310V020 8000 -SHRA FEW012 SCT032TCU BKN045 06/04 Q1020 RESHRA
  • 181800Z 01011KT 4500 SHRA FEW008 SCT022TCU BKN030 06/06 Q1019
  • 181744Z 36012KT 330V030 2500 +SHRA FEW005 BKN020TCU 06/06 Q1019
  • 181730Z 31006KT 270V340 5000 -RA FEW005 SCT022 BKN035 06/06 Q1019

TAF TAF LEVT
Valido dal 18 a 18 ore il 19 a 18 ore UTC


181700Z 1818/1918 VRB05KT 9999 BKN030 TX07/1914Z TN01/1908Z
TEMPO 1818/1822 3000 RA
PROB40
TEMPO 1818/1822 3000 SHRA SCT030TCU
PROB30
TEMPO 1818/1821 VRB15G25KT TS SCT030CB
PROB40
TEMPO 1821/1906 RA BKN010
BECMG 1902/1906 01012KT
TEMPO 1909/1918 03015G25KT



MetMap, La meteo Aeronautica in un colpo d'occhio ! - Copyright ORBIFLY Dicembre 2007 - Disclaimer

ORBIFLY MET'MAP TEAM :

Programmazione e sviluppo : Alexandra Zaïnal
Concezione : Baudouin d'Aumeries
Aiuto per la programmazione : Marc-Olivier Méhu
Supporto tecnico e logistico : Manuel Goepfert
Aiuto per la traduzione : Arnaldo La Scala

Contatto : metmap@orbifly.com




FONTI E CREDITI :

   NOAA